sensor_id;sensor_type;location;lat;lon;timestamp;P1;durP1;ratioP1;P2;durP2;ratioP2
76788;SDS011;65740;52.464;13.446;2023-09-19T00:01:41;11.90;;;11.40;;
76788;SDS011;65740;52.464;13.446;2023-09-19T00:04:09;12.47;;;11.97;;
76788;SDS011;65740;52.464;13.446;2023-09-19T00:06:38;12.47;;;11.97;;
76788;SDS011;65740;52.464;13.446;2023-09-19T00:09:04;11.83;;;11.33;;
76788;SDS011;65740;52.464;13.446;2023-09-19T00:11:35;12.30;;;11.80;;
76788;SDS011;65740;52.464;13.446;2023-09-19T00:14:01;11.90;;;11.40;;
76788;SDS011;65740;52.464;13.446;2023-09-19T00:16:26;11.80;;;11.30;;
76788;SDS011;65740;52.464;13.446;2023-09-19T00:18:52;11.90;;;11.40;;
76788;SDS011;65740;52.464;13.446;2023-09-19T00:21:17;11.50;;;11.00;;
76788;SDS011;65740;52.464;13.446;2023-09-19T00:23:44;11.63;;;11.13;;
76788;SDS011;65740;52.464;13.446;2023-09-19T00:26:10;12.20;;;11.70;;
76788;SDS011;65740;52.464;13.446;2023-09-19T00:28:35;12.00;;;11.50;;
76788;SDS011;65740;52.464;13.446;2023-09-19T00:31:01;12.20;;;11.70;;
76788;SDS011;65740;52.464;13.446;2023-09-19T00:33:27;11.73;;;11.17;;
76788;SDS011;65740;52.464;13.446;2023-09-19T00:35:56;11.87;;;11.37;;
76788;SDS011;65740;52.464;13.446;2023-09-19T00:38:29;11.37;;;10.97;;
76788;SDS011;65740;52.464;13.446;2023-09-19T00:40:54;11.33;;;10.83;;
76788;SDS011;65740;52.464;13.446;2023-09-19T00:43:21;12.00;;;11.50;;
76788;SDS011;65740;52.464;13.446;2023-09-19T00:45:49;11.90;;;11.40;;
76788;SDS011;65740;52.464;13.446;2023-09-19T00:48:16;12.50;;;12.00;;
76788;SDS011;65740;52.464;13.446;2023-09-19T00:50:44;12.10;;;11.50;;
76788;SDS011;65740;52.464;13.446;2023-09-19T00:53:13;12.03;;;11.53;;
76788;SDS011;65740;52.464;13.446;2023-09-19T00:55:40;11.57;;;11.07;;
76788;SDS011;65740;52.464;13.446;2023-09-19T00:58:09;12.03;;;11.53;;
76788;SDS011;65740;52.464;13.446;2023-09-19T01:00:35;11.50;;;11.10;;
76788;SDS011;65740;52.464;13.446;2023-09-19T01:03:02;11.70;;;11.20;;
76788;SDS011;65740;52.464;13.446;2023-09-19T01:05:28;12.37;;;11.87;;
76788;SDS011;65740;52.464;13.446;2023-09-19T01:07:55;12.10;;;11.60;;
76788;SDS011;65740;52.464;13.446;2023-09-19T01:10:20;12.10;;;11.60;;
76788;SDS011;65740;52.464;13.446;2023-09-19T01:12:55;11.63;;;11.17;;
76788;SDS011;65740;52.464;13.446;2023-09-19T01:15:51;12.43;;;11.87;;
76788;SDS011;65740;52.464;13.446;2023-09-19T01:18:50;12.33;;;11.83;;
76788;SDS011;65740;52.464;13.446;2023-09-19T01:21:29;11.60;;;11.20;;
76788;SDS011;65740;52.464;13.446;2023-09-19T01:24:33;11.80;;;11.30;;
76788;SDS011;65740;52.464;13.446;2023-09-19T01:30:06;12.17;;;11.67;;
76788;SDS011;65740;52.464;13.446;2023-09-19T01:32:42;12.63;;;12.13;;
76788;SDS011;65740;52.464;13.446;2023-09-19T01:35:09;12.00;;;11.60;;
76788;SDS011;65740;52.464;13.446;2023-09-19T01:37:37;11.40;;;10.90;;
76788;SDS011;65740;52.464;13.446;2023-09-19T01:40:07;12.20;;;11.70;;
76788;SDS011;65740;52.464;13.446;2023-09-19T01:42:49;11.80;;;11.20;;
76788;SDS011;65740;52.464;13.446;2023-09-19T01:50:44;11.77;;;11.30;;
76788;SDS011;65740;52.464;13.446;2023-09-19T01:56:37;11.40;;;10.93;;
76788;SDS011;65740;52.464;13.446;2023-09-19T01:59:28;11.23;;;10.83;;
76788;SDS011;65740;52.464;13.446;2023-09-19T02:02:03;11.60;;;11.10;;
76788;SDS011;65740;52.464;13.446;2023-09-19T02:04:32;11.47;;;10.97;;
76788;SDS011;65740;52.464;13.446;2023-09-19T02:06:59;11.57;;;10.97;;
76788;SDS011;65740;52.464;13.446;2023-09-19T02:09:26;11.50;;;11.00;;
76788;SDS011;65740;52.464;13.446;2023-09-19T02:11:52;11.47;;;10.97;;
76788;SDS011;65740;52.464;13.446;2023-09-19T02:14:17;11.63;;;11.13;;
76788;SDS011;65740;52.464;13.446;2023-09-19T02:16:44;12.30;;;11.80;;
76788;SDS011;65740;52.464;13.446;2023-09-19T02:19:10;12.50;;;12.00;;
76788;SDS011;65740;52.464;13.446;2023-09-19T02:21:36;11.93;;;11.43;;
76788;SDS011;65740;52.464;13.446;2023-09-19T02:24:05;12.37;;;11.77;;
76788;SDS011;65740;52.464;13.446;2023-09-19T02:26:33;11.60;;;11.20;;
76788;SDS011;65740;52.464;13.446;2023-09-19T02:29:00;11.47;;;10.97;;
76788;SDS011;65740;52.464;13.446;2023-09-19T02:31:28;11.10;;;10.70;;
76788;SDS011;65740;52.464;13.446;2023-09-19T02:33:54;11.50;;;11.00;;
76788;SDS011;65740;52.464;13.446;2023-09-19T02:36:20;11.57;;;11.07;;
76788;SDS011;65740;52.464;13.446;2023-09-19T02:38:45;11.40;;;10.90;;
76788;SDS011;65740;52.464;13.446;2023-09-19T02:41:11;11.70;;;11.20;;
76788;SDS011;65740;52.464;13.446;2023-09-19T02:43:37;11.60;;;11.10;;
76788;SDS011;65740;52.464;13.446;2023-09-19T02:46:02;11.30;;;10.90;;
76788;SDS011;65740;52.464;13.446;2023-09-19T02:48:28;12.40;;;11.90;;
76788;SDS011;65740;52.464;13.446;2023-09-19T02:50:54;12.30;;;11.80;;
76788;SDS011;65740;52.464;13.446;2023-09-19T02:53:20;11.50;;;11.10;;
76788;SDS011;65740;52.464;13.446;2023-09-19T02:55:46;12.30;;;11.80;;
76788;SDS011;65740;52.464;13.446;2023-09-19T02:58:12;12.20;;;11.70;;
76788;SDS011;65740;52.464;13.446;2023-09-19T03:00:39;12.00;;;11.50;;
76788;SDS011;65740;52.464;13.446;2023-09-19T03:03:07;11.70;;;11.30;;
76788;SDS011;65740;52.464;13.446;2023-09-19T03:05:34;11.07;;;10.67;;
76788;SDS011;65740;52.464;13.446;2023-09-19T03:07:59;10.80;;;10.40;;
76788;SDS011;65740;52.464;13.446;2023-09-19T03:10:26;11.80;;;11.30;;
76788;SDS011;65740;52.464;13.446;2023-09-19T03:12:52;10.97;;;10.57;;
76788;SDS011;65740;52.464;13.446;2023-09-19T03:15:18;11.60;;;11.20;;
76788;SDS011;65740;52.464;13.446;2023-09-19T03:17:44;12.00;;;11.53;;
76788;SDS011;65740;52.464;13.446;2023-09-19T03:20:11;11.97;;;11.57;;
76788;SDS011;65740;52.464;13.446;2023-09-19T03:22:38;11.57;;;11.17;;
76788;SDS011;65740;52.464;13.446;2023-09-19T03:25:05;11.93;;;11.43;;
76788;SDS011;65740;52.464;13.446;2023-09-19T03:27:33;11.67;;;11.27;;
76788;SDS011;65740;52.464;13.446;2023-09-19T03:30:00;11.63;;;11.17;;
76788;SDS011;65740;52.464;13.446;2023-09-19T03:32:25;11.53;;;11.13;;
76788;SDS011;65740;52.464;13.446;2023-09-19T03:34:51;11.50;;;11.10;;
76788;SDS011;65740;52.464;13.446;2023-09-19T03:37:17;11.20;;;10.80;;
76788;SDS011;65740;52.464;13.446;2023-09-19T03:39:43;11.40;;;11.00;;
76788;SDS011;65740;52.464;13.446;2023-09-19T03:42:08;11.77;;;11.37;;
76788;SDS011;65740;52.464;13.446;2023-09-19T03:44:34;12.83;;;12.23;;
76788;SDS011;65740;52.464;13.446;2023-09-19T03:47:00;12.37;;;11.87;;
76788;SDS011;65740;52.464;13.446;2023-09-19T03:49:26;11.77;;;11.27;;
76788;SDS011;65740;52.464;13.446;2023-09-19T03:51:51;12.63;;;12.13;;
76788;SDS011;65740;52.464;13.446;2023-09-19T03:54:17;12.27;;;11.77;;
76788;SDS011;65740;52.464;13.446;2023-09-19T03:56:44;12.37;;;11.87;;
76788;SDS011;65740;52.464;13.446;2023-09-19T03:59:10;11.90;;;11.40;;
76788;SDS011;65740;52.464;13.446;2023-09-19T04:01:37;12.80;;;12.30;;
76788;SDS011;65740;52.464;13.446;2023-09-19T04:04:02;12.70;;;12.20;;
76788;SDS011;65740;52.464;13.446;2023-09-19T04:06:36;12.17;;;11.67;;
76788;SDS011;65740;52.464;13.446;2023-09-19T04:09:02;11.60;;;11.20;;
76788;SDS011;65740;52.464;13.446;2023-09-19T04:11:28;11.80;;;11.40;;
76788;SDS011;65740;52.464;13.446;2023-09-19T04:13:55;12.87;;;12.37;;
76788;SDS011;65740;52.464;13.446;2023-09-19T04:16:21;12.40;;;11.90;;
76788;SDS011;65740;52.464;13.446;2023-09-19T04:18:47;12.87;;;12.37;;
76788;SDS011;65740;52.464;13.446;2023-09-19T04:21:12;12.80;;;12.30;;
76788;SDS011;65740;52.464;13.446;2023-09-19T04:23:38;12.17;;;11.67;;
76788;SDS011;65740;52.464;13.446;2023-09-19T04:26:03;12.77;;;12.27;;
76788;SDS011;65740;52.464;13.446;2023-09-19T04:28:30;12.63;;;12.13;;
76788;SDS011;65740;52.464;13.446;2023-09-19T04:30:57;15.40;;;14.80;;
76788;SDS011;65740;52.464;13.446;2023-09-19T04:33:23;15.60;;;15.00;;
76788;SDS011;65740;52.464;13.446;2023-09-19T04:35:50;14.93;;;14.40;;
76788;SDS011;65740;52.464;13.446;2023-09-19T04:38:17;15.10;;;14.50;;
76788;SDS011;65740;52.464;13.446;2023-09-19T04:40:44;15.00;;;14.40;;
76788;SDS011;65740;52.464;13.446;2023-09-19T04:43:10;14.47;;;13.97;;
76788;SDS011;65740;52.464;13.446;2023-09-19T04:45:35;15.03;;;14.37;;
76788;SDS011;65740;52.464;13.446;2023-09-19T04:48:03;13.87;;;13.33;;
76788;SDS011;65740;52.464;13.446;2023-09-19T04:50:29;14.37;;;13.87;;
76788;SDS011;65740;52.464;13.446;2023-09-19T04:52:54;14.80;;;14.20;;
76788;SDS011;65740;52.464;13.446;2023-09-19T04:55:20;15.47;;;14.87;;
76788;SDS011;65740;52.464;13.446;2023-09-19T04:57:46;15.13;;;14.53;;
76788;SDS011;65740;52.464;13.446;2023-09-19T05:00:17;15.03;;;14.43;;
76788;SDS011;65740;52.464;13.446;2023-09-19T05:02:44;15.43;;;14.83;;
76788;SDS011;65740;52.464;13.446;2023-09-19T05:05:11;14.07;;;13.57;;
76788;SDS011;65740;52.464;13.446;2023-09-19T05:07:40;15.30;;;14.70;;
76788;SDS011;65740;52.464;13.446;2023-09-19T05:10:06;14.53;;;14.03;;
76788;SDS011;65740;52.464;13.446;2023-09-19T05:12:33;15.50;;;14.90;;
76788;SDS011;65740;52.464;13.446;2023-09-19T05:15:00;14.80;;;14.20;;
76788;SDS011;65740;52.464;13.446;2023-09-19T05:17:30;14.63;;;14.03;;
76788;SDS011;65740;52.464;13.446;2023-09-19T05:19:56;14.40;;;13.80;;
76788;SDS011;65740;52.464;13.446;2023-09-19T05:22:23;14.80;;;14.20;;
76788;SDS011;65740;52.464;13.446;2023-09-19T05:24:51;15.10;;;14.50;;
76788;SDS011;65740;52.464;13.446;2023-09-19T05:27:17;15.03;;;14.43;;
76788;SDS011;65740;52.464;13.446;2023-09-19T05:29:46;15.27;;;14.67;;
76788;SDS011;65740;52.464;13.446;2023-09-19T05:32:12;14.43;;;13.83;;
76788;SDS011;65740;52.464;13.446;2023-09-19T05:34:38;14.30;;;13.80;;
76788;SDS011;65740;52.464;13.446;2023-09-19T05:37:04;13.20;;;12.70;;
76788;SDS011;65740;52.464;13.446;2023-09-19T05:39:32;13.73;;;13.23;;
76788;SDS011;65740;52.464;13.446;2023-09-19T05:41:58;13.37;;;12.87;;
76788;SDS011;65740;52.464;13.446;2023-09-19T05:44:25;14.00;;;13.50;;
76788;SDS011;65740;52.464;13.446;2023-09-19T05:46:51;13.57;;;13.07;;
76788;SDS011;65740;52.464;13.446;2023-09-19T05:49:17;13.53;;;13.03;;
76788;SDS011;65740;52.464;13.446;2023-09-19T05:51:43;13.47;;;12.97;;
76788;SDS011;65740;52.464;13.446;2023-09-19T05:54:08;13.73;;;13.23;;
76788;SDS011;65740;52.464;13.446;2023-09-19T05:56:36;13.87;;;13.37;;
76788;SDS011;65740;52.464;13.446;2023-09-19T05:59:03;14.30;;;13.80;;
76788;SDS011;65740;52.464;13.446;2023-09-19T06:01:30;13.50;;;13.00;;
76788;SDS011;65740;52.464;13.446;2023-09-19T06:03:57;13.80;;;13.30;;
76788;SDS011;65740;52.464;13.446;2023-09-19T06:06:25;13.20;;;12.70;;
76788;SDS011;65740;52.464;13.446;2023-09-19T06:08:51;12.93;;;12.43;;
76788;SDS011;65740;52.464;13.446;2023-09-19T06:11:16;13.30;;;12.80;;
76788;SDS011;65740;52.464;13.446;2023-09-19T06:13:45;12.70;;;12.20;;
76788;SDS011;65740;52.464;13.446;2023-09-19T06:16:12;13.30;;;12.80;;
76788;SDS011;65740;52.464;13.446;2023-09-19T06:18:38;13.33;;;12.83;;
76788;SDS011;65740;52.464;13.446;2023-09-19T06:21:04;13.63;;;13.10;;
76788;SDS011;65740;52.464;13.446;2023-09-19T06:23:32;13.73;;;13.23;;
76788;SDS011;65740;52.464;13.446;2023-09-19T06:25:59;13.00;;;12.50;;
76788;SDS011;65740;52.464;13.446;2023-09-19T06:28:25;12.67;;;12.17;;
76788;SDS011;65740;52.464;13.446;2023-09-19T06:30:53;13.33;;;12.83;;
76788;SDS011;65740;52.464;13.446;2023-09-19T06:33:19;12.80;;;12.30;;
76788;SDS011;65740;52.464;13.446;2023-09-19T06:35:46;13.40;;;12.90;;
76788;SDS011;65740;52.464;13.446;2023-09-19T06:38:13;13.80;;;13.30;;
76788;SDS011;65740;52.464;13.446;2023-09-19T06:40:40;12.97;;;12.47;;
76788;SDS011;65740;52.464;13.446;2023-09-19T06:43:09;12.87;;;12.37;;
76788;SDS011;65740;52.464;13.446;2023-09-19T06:45:35;12.80;;;12.30;;
76788;SDS011;65740;52.464;13.446;2023-09-19T06:48:01;13.63;;;13.13;;
76788;SDS011;65740;52.464;13.446;2023-09-19T06:50:28;13.43;;;12.87;;
76788;SDS011;65740;52.464;13.446;2023-09-19T06:52:56;14.17;;;13.40;;
76788;SDS011;65740;52.464;13.446;2023-09-19T06:55:24;14.27;;;13.50;;
76788;SDS011;65740;52.464;13.446;2023-09-19T06:57:52;13.67;;;13.07;;
76788;SDS011;65740;52.464;13.446;2023-09-19T07:00:19;13.37;;;12.77;;
76788;SDS011;65740;52.464;13.446;2023-09-19T07:03:00;13.67;;;12.80;;
76788;SDS011;65740;52.464;13.446;2023-09-19T07:05:38;14.40;;;13.30;;
76788;SDS011;65740;52.464;13.446;2023-09-19T07:08:05;13.80;;;13.10;;
76788;SDS011;65740;52.464;13.446;2023-09-19T07:10:37;13.97;;;13.27;;
76788;SDS011;65740;52.464;13.446;2023-09-19T07:13:05;14.03;;;13.27;;
76788;SDS011;65740;52.464;13.446;2023-09-19T07:15:35;13.20;;;12.60;;
76788;SDS011;65740;52.464;13.446;2023-09-19T07:18:05;13.70;;;13.07;;
76788;SDS011;65740;52.464;13.446;2023-09-19T07:20:31;13.80;;;13.10;;
76788;SDS011;65740;52.464;13.446;2023-09-19T07:22:59;13.90;;;12.90;;
76788;SDS011;65740;52.464;13.446;2023-09-19T07:25:25;13.30;;;12.70;;
76788;SDS011;65740;52.464;13.446;2023-09-19T07:27:52;14.87;;;13.60;;
76788;SDS011;65740;52.464;13.446;2023-09-19T07:30:19;14.00;;;13.23;;
76788;SDS011;65740;52.464;13.446;2023-09-19T07:32:45;13.87;;;13.23;;
76788;SDS011;65740;52.464;13.446;2023-09-19T07:35:10;14.30;;;13.60;;
76788;SDS011;65740;52.464;13.446;2023-09-19T07:37:37;13.90;;;13.07;;
76788;SDS011;65740;52.464;13.446;2023-09-19T07:40:03;13.90;;;12.70;;
76788;SDS011;65740;52.464;13.446;2023-09-19T07:42:38;14.20;;;13.30;;
76788;SDS011;65740;52.464;13.446;2023-09-19T07:45:06;14.30;;;13.13;;
76788;SDS011;65740;52.464;13.446;2023-09-19T07:47:33;13.90;;;13.07;;
76788;SDS011;65740;52.464;13.446;2023-09-19T07:49:59;13.97;;;12.93;;
76788;SDS011;65740;52.464;13.446;2023-09-19T07:52:27;13.20;;;12.30;;
76788;SDS011;65740;52.464;13.446;2023-09-19T07:54:53;14.37;;;13.47;;
76788;SDS011;65740;52.464;13.446;2023-09-19T07:57:19;13.97;;;13.10;;
76788;SDS011;65740;52.464;13.446;2023-09-19T07:59:45;13.90;;;13.10;;
76788;SDS011;65740;52.464;13.446;2023-09-19T08:02:11;13.50;;;12.90;;
76788;SDS011;65740;52.464;13.446;2023-09-19T08:04:43;14.00;;;13.17;;
76788;SDS011;65740;52.464;13.446;2023-09-19T08:07:11;14.20;;;13.40;;
76788;SDS011;65740;52.464;13.446;2023-09-19T08:09:38;14.40;;;13.30;;
76788;SDS011;65740;52.464;13.446;2023-09-19T08:12:04;13.57;;;13.00;;
76788;SDS011;65740;52.464;13.446;2023-09-19T08:14:30;13.73;;;12.93;;
76788;SDS011;65740;52.464;13.446;2023-09-19T08:16:57;14.20;;;13.40;;
76788;SDS011;65740;52.464;13.446;2023-09-19T08:19:26;15.00;;;14.20;;
76788;SDS011;65740;52.464;13.446;2023-09-19T08:21:56;13.67;;;12.87;;
76788;SDS011;65740;52.464;13.446;2023-09-19T08:24:24;14.33;;;13.43;;
76788;SDS011;65740;52.464;13.446;2023-09-19T08:26:53;13.77;;;12.80;;
76788;SDS011;65740;52.464;13.446;2023-09-19T08:29:19;13.93;;;13.10;;
76788;SDS011;65740;52.464;13.446;2023-09-19T08:31:45;13.33;;;12.73;;
76788;SDS011;65740;52.464;13.446;2023-09-19T08:34:14;14.03;;;13.33;;
76788;SDS011;65740;52.464;13.446;2023-09-19T08:36:40;14.47;;;13.10;;
76788;SDS011;65740;52.464;13.446;2023-09-19T08:39:08;13.13;;;12.43;;
76788;SDS011;65740;52.464;13.446;2023-09-19T08:41:34;14.10;;;13.40;;
76788;SDS011;65740;52.464;13.446;2023-09-19T08:43:59;14.23;;;13.53;;
76788;SDS011;65740;52.464;13.446;2023-09-19T08:46:29;14.40;;;13.70;;
76788;SDS011;65740;52.464;13.446;2023-09-19T08:51:39;13.10;;;12.40;;
76788;SDS011;65740;52.464;13.446;2023-09-19T08:54:27;12.73;;;12.03;;
76788;SDS011;65740;52.464;13.446;2023-09-19T08:56:56;13.90;;;13.20;;
76788;SDS011;65740;52.464;13.446;2023-09-19T08:59:30;13.30;;;12.70;;
76788;SDS011;65740;52.464;13.446;2023-09-19T09:01:56;14.37;;;13.63;;
76788;SDS011;65740;52.464;13.446;2023-09-19T09:04:23;14.37;;;13.67;;
76788;SDS011;65740;52.464;13.446;2023-09-19T09:06:51;13.97;;;13.30;;
76788;SDS011;65740;52.464;13.446;2023-09-19T09:09:20;14.00;;;13.30;;
76788;SDS011;65740;52.464;13.446;2023-09-19T09:11:45;13.97;;;13.27;;
76788;SDS011;65740;52.464;13.446;2023-09-19T09:14:16;14.27;;;13.33;;
76788;SDS011;65740;52.464;13.446;2023-09-19T09:16:42;14.77;;;13.90;;
76788;SDS011;65740;52.464;13.446;2023-09-19T09:19:07;14.67;;;13.63;;
76788;SDS011;65740;52.464;13.446;2023-09-19T09:21:33;13.60;;;12.90;;
76788;SDS011;65740;52.464;13.446;2023-09-19T09:24:50;14.13;;;13.40;;
76788;SDS011;65740;52.464;13.446;2023-09-19T09:26:54;13.50;;;12.90;;
76788;SDS011;65740;52.464;13.446;2023-09-19T09:29:41;14.30;;;13.20;;
76788;SDS011;65740;52.464;13.446;2023-09-19T09:32:20;14.17;;;13.40;;
76788;SDS011;65740;52.464;13.446;2023-09-19T09:35:01;14.73;;;13.70;;
76788;SDS011;65740;52.464;13.446;2023-09-19T09:37:34;14.00;;;13.33;;
76788;SDS011;65740;52.464;13.446;2023-09-19T09:40:03;13.50;;;12.70;;
76788;SDS011;65740;52.464;13.446;2023-09-19T09:42:42;14.30;;;13.40;;
76788;SDS011;65740;52.464;13.446;2023-09-19T09:45:15;14.30;;;13.50;;
76788;SDS011;65740;52.464;13.446;2023-09-19T09:47:53;13.63;;;13.00;;
76788;SDS011;65740;52.464;13.446;2023-09-19T09:53:01;14.20;;;13.37;;
76788;SDS011;65740;52.464;13.446;2023-09-19T09:55:36;13.73;;;12.87;;
76788;SDS011;65740;52.464;13.446;2023-09-19T09:58:33;14.50;;;13.70;;
76788;SDS011;65740;52.464;13.446;2023-09-19T10:01:03;14.23;;;13.43;;
76788;SDS011;65740;52.464;13.446;2023-09-19T10:03:34;13.87;;;13.27;;
76788;SDS011;65740;52.464;13.446;2023-09-19T10:06:08;13.63;;;13.00;;
76788;SDS011;65740;52.464;13.446;2023-09-19T10:09:00;13.80;;;13.00;;
76788;SDS011;65740;52.464;13.446;2023-09-19T10:11:40;13.57;;;12.87;;
76788;SDS011;65740;52.464;13.446;2023-09-19T10:14:11;14.43;;;13.43;;
76788;SDS011;65740;52.464;13.446;2023-09-19T10:16:45;13.70;;;12.83;;
76788;SDS011;65740;52.464;13.446;2023-09-19T10:19:23;14.90;;;13.97;;
76788;SDS011;65740;52.464;13.446;2023-09-19T10:21:55;14.30;;;13.50;;
76788;SDS011;65740;52.464;13.446;2023-09-19T10:24:22;14.43;;;13.63;;
76788;SDS011;65740;52.464;13.446;2023-09-19T10:26:51;14.60;;;14.00;;
76788;SDS011;65740;52.464;13.446;2023-09-19T10:29:19;14.27;;;13.63;;
76788;SDS011;65740;52.464;13.446;2023-09-19T10:31:49;15.10;;;14.03;;
76788;SDS011;65740;52.464;13.446;2023-09-19T10:34:18;15.03;;;14.07;;
76788;SDS011;65740;52.464;13.446;2023-09-19T10:36:45;13.83;;;12.90;;
76788;SDS011;65740;52.464;13.446;2023-09-19T10:39:13;14.13;;;13.20;;
76788;SDS011;65740;52.464;13.446;2023-09-19T10:41:43;14.00;;;12.93;;
76788;SDS011;65740;52.464;13.446;2023-09-19T10:44:18;14.47;;;13.30;;
76788;SDS011;65740;52.464;13.446;2023-09-19T10:46:52;14.90;;;13.70;;
76788;SDS011;65740;52.464;13.446;2023-09-19T10:49:19;14.53;;;13.70;;
76788;SDS011;65740;52.464;13.446;2023-09-19T10:51:46;14.00;;;13.10;;
76788;SDS011;65740;52.464;13.446;2023-09-19T10:54:16;14.70;;;13.90;;
76788;SDS011;65740;52.464;13.446;2023-09-19T10:56:46;13.97;;;13.17;;
76788;SDS011;65740;52.464;13.446;2023-09-19T10:59:17;14.17;;;13.40;;
76788;SDS011;65740;52.464;13.446;2023-09-19T11:12:10;13.90;;;13.30;;
76788;SDS011;65740;52.464;13.446;2023-09-19T11:15:06;14.20;;;13.13;;
76788;SDS011;65740;52.464;13.446;2023-09-19T11:17:39;15.20;;;14.20;;
76788;SDS011;65740;52.464;13.446;2023-09-19T11:30:47;158.00;;;95.87;;
76788;SDS011;65740;52.464;13.446;2023-09-19T11:43:51;213.47;;;129.50;;
76788;SDS011;65740;52.464;13.446;2023-09-19T11:46:19;194.83;;;117.27;;
76788;SDS011;65740;52.464;13.446;2023-09-19T11:48:48;197.17;;;118.83;;
76788;SDS011;65740;52.464;13.446;2023-09-19T11:51:15;180.07;;;109.37;;
76788;SDS011;65740;52.464;13.446;2023-09-19T11:53:48;163.50;;;106.27;;
76788;SDS011;65740;52.464;13.446;2023-09-19T11:56:18;171.33;;;107.33;;
76788;SDS011;65740;52.464;13.446;2023-09-19T11:58:52;164.47;;;104.90;;
76788;SDS011;65740;52.464;13.446;2023-09-19T12:01:42;165.43;;;98.90;;
76788;SDS011;65740;52.464;13.446;2023-09-19T12:04:14;155.23;;;95.37;;
76788;SDS011;65740;52.464;13.446;2023-09-19T12:06:42;168.50;;;96.70;;
76788;SDS011;65740;52.464;13.446;2023-09-19T12:09:12;167.00;;;97.93;;
76788;SDS011;65740;52.464;13.446;2023-09-19T12:11:42;151.17;;;91.70;;
76788;SDS011;65740;52.464;13.446;2023-09-19T12:14:11;141.90;;;91.67;;
76788;SDS011;65740;52.464;13.446;2023-09-19T12:16:37;142.20;;;90.47;;
76788;SDS011;65740;52.464;13.446;2023-09-19T12:19:18;131.60;;;90.30;;
76788;SDS011;65740;52.464;13.446;2023-09-19T12:21:53;124.47;;;80.40;;
76788;SDS011;65740;52.464;13.446;2023-09-19T12:24:24;129.60;;;83.63;;
76788;SDS011;65740;52.464;13.446;2023-09-19T12:26:52;135.70;;;82.90;;
76788;SDS011;65740;52.464;13.446;2023-09-19T12:29:18;132.00;;;83.57;;
76788;SDS011;65740;52.464;13.446;2023-09-19T12:31:52;114.97;;;76.67;;
76788;SDS011;65740;52.464;13.446;2023-09-19T12:34:31;107.50;;;75.57;;
76788;SDS011;65740;52.464;13.446;2023-09-19T12:37:04;112.73;;;72.07;;
76788;SDS011;65740;52.464;13.446;2023-09-19T12:39:37;103.77;;;71.90;;
76788;SDS011;65740;52.464;13.446;2023-09-19T12:42:06;111.37;;;74.97;;
76788;SDS011;65740;52.464;13.446;2023-09-19T12:44:34;100.40;;;67.67;;
76788;SDS011;65740;52.464;13.446;2023-09-19T12:47:13;101.53;;;68.00;;
76788;SDS011;65740;52.464;13.446;2023-09-19T12:52:36;98.57;;;67.17;;
76788;SDS011;65740;52.464;13.446;2023-09-19T12:55:03;92.37;;;63.77;;
76788;SDS011;65740;52.464;13.446;2023-09-19T12:57:30;92.67;;;63.00;;
76788;SDS011;65740;52.464;13.446;2023-09-19T13:00:00;89.00;;;62.67;;
76788;SDS011;65740;52.464;13.446;2023-09-19T13:02:36;88.23;;;62.67;;
76788;SDS011;65740;52.464;13.446;2023-09-19T13:05:03;79.67;;;56.53;;
76788;SDS011;65740;52.464;13.446;2023-09-19T13:07:44;91.13;;;61.97;;
76788;SDS011;65740;52.464;13.446;2023-09-19T13:10:14;82.47;;;57.80;;
76788;SDS011;65740;52.464;13.446;2023-09-19T13:12:41;76.07;;;56.37;;
76788;SDS011;65740;52.464;13.446;2023-09-19T13:15:12;76.43;;;54.50;;
76788;SDS011;65740;52.464;13.446;2023-09-19T13:17:44;77.37;;;55.37;;
76788;SDS011;65740;52.464;13.446;2023-09-19T13:20:23;74.73;;;53.53;;
76788;SDS011;65740;52.464;13.446;2023-09-19T13:22:52;74.53;;;52.40;;
76788;SDS011;65740;52.464;13.446;2023-09-19T13:25:21;77.00;;;51.60;;
76788;SDS011;65740;52.464;13.446;2023-09-19T13:27:54;74.10;;;53.20;;
76788;SDS011;65740;52.464;13.446;2023-09-19T13:30:23;70.20;;;50.10;;
76788;SDS011;65740;52.464;13.446;2023-09-19T13:33:04;65.30;;;50.30;;
76788;SDS011;65740;52.464;13.446;2023-09-19T13:35:32;70.87;;;47.57;;
76788;SDS011;65740;52.464;13.446;2023-09-19T13:37:57;65.53;;;48.70;;
76788;SDS011;65740;52.464;13.446;2023-09-19T13:40:24;59.70;;;47.57;;
76788;SDS011;65740;52.464;13.446;2023-09-19T13:42:59;63.70;;;47.90;;
76788;SDS011;65740;52.464;13.446;2023-09-19T13:45:26;52.63;;;43.83;;
76788;SDS011;65740;52.464;13.446;2023-09-19T13:47:52;54.77;;;45.33;;
76788;SDS011;65740;52.464;13.446;2023-09-19T13:50:18;59.70;;;43.40;;
76788;SDS011;65740;52.464;13.446;2023-09-19T13:52:49;55.10;;;44.00;;
76788;SDS011;65740;52.464;13.446;2023-09-19T13:55:16;70.50;;;43.90;;
76788;SDS011;65740;52.464;13.446;2023-09-19T13:57:45;54.40;;;42.53;;
76788;SDS011;65740;52.464;13.446;2023-09-19T14:00:15;51.67;;;42.80;;
76788;SDS011;65740;52.464;13.446;2023-09-19T14:02:41;51.07;;;40.83;;
76788;SDS011;65740;52.464;13.446;2023-09-19T14:05:11;52.93;;;41.30;;
76788;SDS011;65740;52.464;13.446;2023-09-19T14:07:44;49.80;;;40.07;;
76788;SDS011;65740;52.464;13.446;2023-09-19T14:10:10;50.87;;;40.80;;
76788;SDS011;65740;52.464;13.446;2023-09-19T14:12:37;43.57;;;37.37;;
76788;SDS011;65740;52.464;13.446;2023-09-19T14:15:06;42.83;;;37.03;;
76788;SDS011;65740;52.464;13.446;2023-09-19T14:17:33;42.97;;;38.27;;
76788;SDS011;65740;52.464;13.446;2023-09-19T14:19:58;44.33;;;37.87;;
76788;SDS011;65740;52.464;13.446;2023-09-19T14:22:24;45.60;;;37.77;;
76788;SDS011;65740;52.464;13.446;2023-09-19T14:24:50;50.50;;;39.10;;
76788;SDS011;65740;52.464;13.446;2023-09-19T14:27:16;46.50;;;35.50;;
76788;SDS011;65740;52.464;13.446;2023-09-19T14:29:41;45.03;;;36.23;;
76788;SDS011;65740;52.464;13.446;2023-09-19T14:32:07;43.20;;;35.80;;
76788;SDS011;65740;52.464;13.446;2023-09-19T14:34:33;39.20;;;35.00;;
76788;SDS011;65740;52.464;13.446;2023-09-19T14:36:59;40.20;;;35.80;;
76788;SDS011;65740;52.464;13.446;2023-09-19T14:39:24;40.03;;;35.20;;
76788;SDS011;65740;52.464;13.446;2023-09-19T14:41:50;44.37;;;34.50;;
76788;SDS011;65740;52.464;13.446;2023-09-19T14:44:16;41.47;;;34.83;;
76788;SDS011;65740;52.464;13.446;2023-09-19T14:46:42;36.10;;;32.27;;
76788;SDS011;65740;52.464;13.446;2023-09-19T14:49:09;37.97;;;33.83;;
76788;SDS011;65740;52.464;13.446;2023-09-19T14:51:37;35.20;;;31.43;;
76788;SDS011;65740;52.464;13.446;2023-09-19T14:54:04;34.53;;;30.53;;
76788;SDS011;65740;52.464;13.446;2023-09-19T14:56:32;35.50;;;31.97;;
76788;SDS011;65740;52.464;13.446;2023-09-19T14:58:58;37.17;;;32.00;;
76788;SDS011;65740;52.464;13.446;2023-09-19T15:01:23;39.90;;;32.90;;
76788;SDS011;65740;52.464;13.446;2023-09-19T15:03:49;34.87;;;30.97;;
76788;SDS011;65740;52.464;13.446;2023-09-19T15:06:15;33.13;;;29.90;;
76788;SDS011;65740;52.464;13.446;2023-09-19T15:08:43;35.07;;;31.27;;
76788;SDS011;65740;52.464;13.446;2023-09-19T15:11:15;32.30;;;29.00;;